Celebrity Century — 9HJI9 — position and weather

sailwx.info

Track history (hours):
 
Tides and Currents Weather Stations Pressure Air Temp Water Temp Dewpoint Dewpoint Depression Visibility Wind Speed Wind Dir Waves Ship Positions

Celebrity Century

Last reported at 2015-Feb-22 15:11 UTC. Time now 2015-Mar-01 00:33 UTC.
Position N 01°16' E 104°17'.

Length 252 m; draft 8.1 m.

Type: Ship. MMSI: 249054000.

Date/timePositionNaut miles runAvg speedWind from/ knotsBaromVisibWave heightAir tempDewpointWater temp
2015-Feb-22 15:11N 01°16' E 104°17'913.5
2015-Feb-22 14:31N 01°15' E 104°08'1313.7
2015-Feb-22 13:33N 01°13' E 103°55'4 4.2
2015-Feb-22 12:33N 01°16' E 103°52'0 0.0
2015-Feb-21 23:15N 01°16' E 103°52'0 0.5
2015-Feb-21 22:33N 01°16' E 103°52'4 3.7
2015-Feb-21 21:33N 01°12' E 103°53'1110.6
2015-Feb-21 20:32N 01°06' E 103°44'6214.6
2015-Feb-21 16:15N 01°36' E 102°49'2117.6
2015-Feb-21 15:05N 01°44' E 102°31'1417.8
2015-Feb-21 14:19N 01°50' E 102°18'2018.0
2015-Feb-21 13:14N 02°03' E 102°03'3118.7
2015-Feb-21 11:33N 02°24' E 101°40'  
Track history (hours):
 
Tides and Currents Weather Stations Pressure Air Temp Water Temp Dewpoint Dewpoint Depression Visibility Wind Speed Wind Dir Waves Ship Positions

Celebrity Century

Last reported at 2015-Feb-22 15:11 UTC. Time now 2015-Mar-01 00:33 UTC.
Position N 01°16' E 104°17'.

Length 252 m; draft 8.1 m.

Type: Ship. MMSI: 249054000.

Date/timePositionNaut miles runAvg speedWind from/ knotsBaromVisibWave heightAir tempDewpointWater temp
2015-Feb-22 15:11N 01°16' E 104°17'913.5
2015-Feb-22 14:31N 01°15' E 104°08'1313.7
2015-Feb-22 13:33N 01°13' E 103°55'4 4.2
2015-Feb-22 12:33N 01°16' E 103°52'0 0.0
2015-Feb-21 23:15N 01°16' E 103°52'0 0.5
2015-Feb-21 22:33N 01°16' E 103°52'4 3.7
2015-Feb-21 21:33N 01°12' E 103°53'1110.6
2015-Feb-21 20:32N 01°06' E 103°44'6214.6
2015-Feb-21 16:15N 01°36' E 102°49'2117.6
2015-Feb-21 15:05N 01°44' E 102°31'1417.8
2015-Feb-21 14:19N 01°50' E 102°18'2018.0
2015-Feb-21 13:14N 02°03' E 102°03'3118.7
2015-Feb-21 11:33N 02°24' E 101°40'  

Dump ship's entire track history